地図

経路データ

SID SEASON NUMBER BASIN SUBBASIN NAME ISO_TIME NATURE LAT LON WMO_WIND WMO_PRES WMO_AGENCY TRACK_TYPE DIST2LAND LANDFALL IFLAG USA_AGENCY USA_ATCF_ID USA_LAT USA_LON USA_RECORD USA_STATUS USA_WIND USA_PRES USA_SSHS USA_R34_NE USA_R34_SE USA_R34_SW USA_R34_NW USA_R50_NE USA_R50_SE USA_R50_SW USA_R50_NW USA_R64_NE USA_R64_SE USA_R64_SW USA_R64_NW USA_POCI USA_ROCI USA_RMW USA_EYE TOKYO_LAT TOKYO_LON TOKYO_GRADE TOKYO_WIND TOKYO_PRES TOKYO_R50_DIR TOKYO_R50_LONG TOKYO_R50_SHORT TOKYO_R30_DIR TOKYO_R30_LONG TOKYO_R30_SHORT TOKYO_LAND CMA_LAT CMA_LON CMA_CAT CMA_WIND CMA_PRES HKO_LAT HKO_LON HKO_CAT HKO_WIND HKO_PRES NEWDELHI_LAT NEWDELHI_LON NEWDELHI_GRADE NEWDELHI_WIND NEWDELHI_PRES NEWDELHI_CI NEWDELHI_DP NEWDELHI_POCI REUNION_LAT REUNION_LON REUNION_TYPE REUNION_WIND REUNION_PRES REUNION_TNUM REUNION_CI REUNION_RMW REUNION_R34_NE REUNION_R34_SE REUNION_R34_SW REUNION_R34_NW REUNION_R50_NE REUNION_R50_SE REUNION_R50_SW REUNION_R50_NW REUNION_R64_NE REUNION_R64_SE REUNION_R64_SW REUNION_R64_NW BOM_LAT BOM_LON BOM_TYPE BOM_WIND BOM_PRES BOM_TNUM BOM_CI BOM_RMW BOM_R34_NE BOM_R34_SE BOM_R34_SW BOM_R34_NW BOM_R50_NE BOM_R50_SE BOM_R50_SW BOM_R50_NW BOM_R64_NE BOM_R64_SE BOM_R64_SW BOM_R64_NW BOM_ROCI BOM_POCI BOM_EYE BOM_POS_METHOD BOM_PRES_METHOD NADI_LAT NADI_LON NADI_CAT NADI_WIND NADI_PRES WELLINGTON_LAT WELLINGTON_LON WELLINGTON_WIND WELLINGTON_PRES DS824_LAT DS824_LON DS824_STAGE DS824_WIND DS824_PRES TD9636_LAT TD9636_LON TD9636_STAGE TD9636_WIND TD9636_PRES TD9635_LAT TD9635_LON TD9635_WIND TD9635_PRES TD9635_ROCI NEUMANN_LAT NEUMANN_LON NEUMANN_CLASS NEUMANN_WIND NEUMANN_PRES MLC_LAT MLC_LON MLC_CLASS MLC_WIND MLC_PRES USA_GUST BOM_GUST BOM_GUST_PER REUNION_GUST REUNION_GUST_PER USA_SEAHGT USA_SEARAD_NE USA_SEARAD_SE USA_SEARAD_SW USA_SEARAD_NW STORM_SPEED STORM_DIR
1937212N21131 1937 27 WP MM NOT_NAMED 1937-07-31 10:00:00 NR 21.4000 130.500 main 920 910 __________O___ -1 21.4000 130.500 4 4 301
1937212N21131 1937 27 WP MM NOT_NAMED 1937-07-31 12:00:00 NR 21.4770 130.366 main 914 895 __________P___ -1 21.4770 130.366 4 4 302
1937212N21131 1937 27 WP MM NOT_NAMED 1937-07-31 15:00:00 NR 21.5948 130.165 main 899 884 __________P___ -1 21.5948 130.165 4 4 303
1937212N21131 1937 27 WP MM NOT_NAMED 1937-07-31 18:00:00 NR 21.7187 129.964 main 884 857 __________P___ -1 21.7187 129.964 4 5 305
1937212N21131 1937 27 WP MM NOT_NAMED 1937-07-31 21:00:00 NR 21.8525 129.766 main 857 847 __________P___ -1 21.8525 129.766 4 5 307
1937212N21131 1937 27 WP MM NOT_NAMED 1937-07-31 22:00:00 NR 21.9000 129.700 main 847 834 __________O___ -1 21.9000 129.700 4 5 309
1937212N21131 1937 27 WP MM NOT_NAMED 1937-08-01 00:00:00 NR 21.9995 129.569 main 834 807 __________P___ -1 21.9995 129.569 4 5 310
1937212N21131 1937 27 WP MM NOT_NAMED 1937-08-01 03:00:00 NR 22.1551 129.373 main 807 784 __________P___ -1 22.1551 129.373 4 5 310
1937212N21131 1937 27 WP MM NOT_NAMED 1937-08-01 06:00:00 NR 22.3102 129.175 main 784 757 __________P___ -1 22.3102 129.175 4 5 309
1937212N21131 1937 27 WP MM NOT_NAMED 1937-08-01 09:00:00 NR 22.4554 128.970 main 757 747 __________P___ -1 22.4554 128.970 4 5 307
1937212N21131 1937 27 WP MM NOT_NAMED 1937-08-01 10:00:00 NR 22.5000 128.900 main 747 734 __________O___ -1 22.5000 128.900 4 5 302
1937212N21131 1937 27 WP MM NOT_NAMED 1937-08-01 12:00:00 NR 22.5754 128.761 main 734 701 __________P___ -1 22.5754 128.761 4 4 298
1937212N21131 1937 27 WP MM NOT_NAMED 1937-08-01 15:00:00 NR 22.6758 128.546 main 701 678 __________P___ -1 22.6758 128.546 4 5 296
1937212N21131 1937 27 WP MM NOT_NAMED 1937-08-01 18:00:00 NR 22.7694 128.321 main 678 655 __________P___ -1 22.7694 128.321 4 5 294
1937212N21131 1937 27 WP MM NOT_NAMED 1937-08-01 21:00:00 NR 22.8657 128.083 main 655 645 __________P___ -1 22.8657 128.083 4 5 294
1937212N21131 1937 27 WP MM NOT_NAMED 1937-08-01 22:00:00 NR 22.9000 128.000 main 645 623 __________O___ -1 22.9000 128.000 4 5 296
1937212N21131 1937 27 WP MM NOT_NAMED 1937-08-02 00:00:00 NR 22.9830 127.818 main 623 590 __________P___ -1 22.9830 127.818 4 6 296
1937212N21131 1937 27 WP MM NOT_NAMED 1937-08-02 03:00:00 NR 23.1138 127.531 main 590 557 __________P___ -1 23.1138 127.531 4 6 296
1937212N21131 1937 27 WP MM NOT_NAMED 1937-08-02 06:00:00 NR 23.2439 127.246 main 557 532 __________P___ -1 23.2439 127.246 4 6 296
1937212N21131 1937 27 WP MM NOT_NAMED 1937-08-02 09:00:00 NR 23.3639 126.981 main 532 522 __________P___ -1 23.3639 126.981 4 5 296
1937212N21131 1937 27 WP MM NOT_NAMED 1937-08-02 10:00:00 NR 23.4000 126.900 main 522 512 __________O___ -1 23.4000 126.900 4 4 289
1937212N21131 1937 27 WP MM NOT_NAMED 1937-08-02 12:00:00 NR 23.4269 126.783 main 512 490 __________P___ -1 23.4269 126.783 4 3 282
1937212N21131 1937 27 WP MM NOT_NAMED 1937-08-02 15:00:00 NR 23.4540 126.634 main 490 480 __________P___ -1 23.4540 126.634 4 3 286
1937212N21131 1937 27 WP MM NOT_NAMED 1937-08-02 18:00:00 NR 23.5073 126.481 main 480 457 __________P___ -1 23.5073 126.481 4 4 299
1937212N21131 1937 27 WP MM NOT_NAMED 1937-08-02 21:00:00 NR 23.6336 126.283 main 457 445 __________P___ -1 23.6336 126.283 4 5 307
1937212N21131 1937 27 WP MM NOT_NAMED 1937-08-02 22:00:00 NR 23.7000 126.200 main 445 420 __________O___ -1 23.7000 126.200 4 7 312
1937212N21131 1937 27 WP MM NOT_NAMED 1937-08-03 00:00:00 NR 23.8796 125.983 main 420 374 __________P___ -1 23.8796 125.983 4 9 314
1937212N21131 1937 27 WP MM NOT_NAMED 1937-08-03 03:00:00 NR 24.2307 125.599 main 374 324 __________P___ -1 24.2307 125.599 4 11 317
1937212N21131 1937 27 WP MM NOT_NAMED 1937-08-03 06:00:00 NR 24.6571 125.175 main 324 272 __________P___ -1 24.6571 125.175 4 12 319
1937212N21131 1937 27 WP MM NOT_NAMED 1937-08-03 09:00:00 NR 25.1340 124.741 main 272 262 __________P___ -1 25.1340 124.741 4 12 321
1937212N21131 1937 27 WP MM NOT_NAMED 1937-08-03 10:00:00 NR 25.3000 124.600 main 263 240 __________O___ -1 25.3000 124.600 4 13 324
1937212N21131 1937 27 WP MM NOT_NAMED 1937-08-03 12:00:00 NR 25.6380 124.328 main 240 229 __________P___ -1 25.6380 124.328 4 13 325
1937212N21131 1937 27 WP MM NOT_NAMED 1937-08-03 15:00:00 NR 26.1570 123.943 main 232 231 __________P___ -1 26.1570 123.943 4 13 327
1937212N21131 1937 27 WP MM NOT_NAMED 1937-08-03 18:00:00 NR 26.6863 123.576 main 248 199 __________P___ -1 26.6863 123.576 4 13 329
1937212N21131 1937 27 WP MM NOT_NAMED 1937-08-03 21:00:00 NR 27.2213 123.219 main 199 178 __________P___ -1 27.2213 123.219 4 12 329
1937212N21131 1937 27 WP MM NOT_NAMED 1937-08-03 22:00:00 NR 27.4000 123.100 main 178 __________O___ -1 27.4000 123.100 4 12 330

デジタル台風データ・検索

IBTrACS Databaseについて

本データベースは、米国NOAAが公開する1842年以降の世界の熱帯低気圧のベストトラックデータアーカイブInternational Best Track Archive for Climate Stewardship (IBTrACS)を、ウェブで閲覧しやすい形式に変換したものです。

最終更新日:2021-11-26